Terminal Aerodrome Forecast
Issued by NWS Wilmington, OH

Current Version | Previous Version | Graphics & Text | Print | Product List | Glossary On
Versions: 1 2 3 4 5 6 7 8 9 10 11 12 13 14 15 16 17 18 19 20 21 22 23 24 25
000
FTUS41 KILN 311700
TAFCVG
TAF
KCVG 311740Z 3118/0124 20008KT P6SM VCSH SCT015 OVC022
     FM312300 21005KT P6SM SCT020 BKN250
     FM010600 20005KT 5SM BR VCSH OVC012
     FM011400 22009KT P6SM BKN018
     FM011700 21011G19KT P6SM SCT040=

USA.gov is the U.S. government's official web portal to all federal, state and local government web resources and services.